sensor_id;sensor_type;location;lat;lon;timestamp;temperature;humidity
21778;DHT22;11050;52.222;20.916;2022-12-22T00:02:02;3.40;99.90
21778;DHT22;11050;52.222;20.916;2022-12-22T00:04:52;3.40;99.90
21778;DHT22;11050;52.222;20.916;2022-12-22T00:07:36;3.40;99.90
21778;DHT22;11050;52.222;20.916;2022-12-22T00:10:20;3.40;99.90
21778;DHT22;11050;52.222;20.916;2022-12-22T00:13:04;3.40;99.90
21778;DHT22;11050;52.222;20.916;2022-12-22T00:15:54;3.40;99.90
21778;DHT22;11050;52.222;20.916;2022-12-22T00:18:38;3.40;99.90
21778;DHT22;11050;52.222;20.916;2022-12-22T00:21:22;3.50;99.90
21778;DHT22;11050;52.222;20.916;2022-12-22T00:24:07;3.50;99.90
21778;DHT22;11050;52.222;20.916;2022-12-22T00:26:51;3.50;99.90
21778;DHT22;11050;52.222;20.916;2022-12-22T00:29:40;3.50;99.90
21778;DHT22;11050;52.222;20.916;2022-12-22T00:32:31;3.50;99.90
21778;DHT22;11050;52.222;20.916;2022-12-22T00:35:21;3.50;99.90
21778;DHT22;11050;52.222;20.916;2022-12-22T00:38:20;3.50;99.90
21778;DHT22;11050;52.222;20.916;2022-12-22T00:41:04;3.50;99.90
21778;DHT22;11050;52.222;20.916;2022-12-22T00:43:49;3.60;99.90
21778;DHT22;11050;52.222;20.916;2022-12-22T00:46:35;3.60;99.90
21778;DHT22;11050;52.222;20.916;2022-12-22T00:49:24;3.60;99.90
21778;DHT22;11050;52.222;20.916;2022-12-22T00:52:11;3.60;99.90
21778;DHT22;11050;52.222;20.916;2022-12-22T00:54:56;3.60;99.90
21778;DHT22;11050;52.222;20.916;2022-12-22T00:57:41;3.60;99.90
21778;DHT22;11050;52.222;20.916;2022-12-22T01:00:27;3.60;99.90
21778;DHT22;11050;52.222;20.916;2022-12-22T01:03:11;3.60;99.90
21778;DHT22;11050;52.222;20.916;2022-12-22T01:05:58;3.60;99.90
21778;DHT22;11050;52.222;20.916;2022-12-22T01:08:44;3.60;99.90
21778;DHT22;11050;52.222;20.916;2022-12-22T01:11:30;3.60;99.90
21778;DHT22;11050;52.222;20.916;2022-12-22T01:14:16;3.60;99.90
21778;DHT22;11050;52.222;20.916;2022-12-22T01:17:01;3.60;99.90
21778;DHT22;11050;52.222;20.916;2022-12-22T01:19:45;3.60;99.90
21778;DHT22;11050;52.222;20.916;2022-12-22T01:22:29;3.60;99.90
21778;DHT22;11050;52.222;20.916;2022-12-22T01:25:16;3.60;99.90
21778;DHT22;11050;52.222;20.916;2022-12-22T01:28:02;3.60;99.90
21778;DHT22;11050;52.222;20.916;2022-12-22T01:30:47;3.60;99.90
21778;DHT22;11050;52.222;20.916;2022-12-22T01:33:32;3.60;99.90
21778;DHT22;11050;52.222;20.916;2022-12-22T01:36:16;3.60;99.90
21778;DHT22;11050;52.222;20.916;2022-12-22T01:39:02;3.60;99.90
21778;DHT22;11050;52.222;20.916;2022-12-22T01:41:48;3.60;99.90
21778;DHT22;11050;52.222;20.916;2022-12-22T01:44:32;3.60;99.90
21778;DHT22;11050;52.222;20.916;2022-12-22T01:47:30;3.60;99.90
21778;DHT22;11050;52.222;20.916;2022-12-22T01:50:33;3.60;99.90
21778;DHT22;11050;52.222;20.916;2022-12-22T01:53:23;3.50;99.90
21778;DHT22;11050;52.222;20.916;2022-12-22T01:56:10;3.50;99.90
21778;DHT22;11050;52.222;20.916;2022-12-22T01:58:57;3.60;99.90
21778;DHT22;11050;52.222;20.916;2022-12-22T02:01:43;3.50;99.90
21778;DHT22;11050;52.222;20.916;2022-12-22T02:04:35;3.60;99.90
21778;DHT22;11050;52.222;20.916;2022-12-22T02:14:21;3.50;99.90
21778;DHT22;11050;52.222;20.916;2022-12-22T02:17:50;3.50;99.90
21778;DHT22;11050;52.222;20.916;2022-12-22T02:20:53;3.50;99.90
21778;DHT22;11050;52.222;20.916;2022-12-22T02:24:26;3.50;99.90
21778;DHT22;11050;52.222;20.916;2022-12-22T02:27:13;3.50;99.90
21778;DHT22;11050;52.222;20.916;2022-12-22T02:30:02;3.50;99.90
21778;DHT22;11050;52.222;20.916;2022-12-22T02:32:49;3.50;99.90
21778;DHT22;11050;52.222;20.916;2022-12-22T02:36:04;3.50;99.90
21778;DHT22;11050;52.222;20.916;2022-12-22T02:39:27;3.50;99.90
21778;DHT22;11050;52.222;20.916;2022-12-22T02:42:28;3.50;99.90
21778;DHT22;11050;52.222;20.916;2022-12-22T02:45:26;3.50;99.90
21778;DHT22;11050;52.222;20.916;2022-12-22T02:48:42;3.50;99.90
21778;DHT22;11050;52.222;20.916;2022-12-22T02:51:36;3.50;99.90
21778;DHT22;11050;52.222;20.916;2022-12-22T02:54:27;3.50;99.90
21778;DHT22;11050;52.222;20.916;2022-12-22T02:57:16;3.50;99.90
21778;DHT22;11050;52.222;20.916;2022-12-22T03:00:02;3.60;99.90
21778;DHT22;11050;52.222;20.916;2022-12-22T03:02:47;3.60;99.90
21778;DHT22;11050;52.222;20.916;2022-12-22T03:05:31;3.60;99.90
21778;DHT22;11050;52.222;20.916;2022-12-22T03:08:15;3.60;99.90
21778;DHT22;11050;52.222;20.916;2022-12-22T03:11:00;3.60;99.90
21778;DHT22;11050;52.222;20.916;2022-12-22T03:13:44;3.60;99.90
21778;DHT22;11050;52.222;20.916;2022-12-22T03:16:28;3.60;99.90
21778;DHT22;11050;52.222;20.916;2022-12-22T03:19:12;3.60;99.90
21778;DHT22;11050;52.222;20.916;2022-12-22T03:21:56;3.60;99.90
21778;DHT22;11050;52.222;20.916;2022-12-22T03:24:40;3.60;99.90
21778;DHT22;11050;52.222;20.916;2022-12-22T03:27:24;3.60;99.90
21778;DHT22;11050;52.222;20.916;2022-12-22T03:29:50;3.60;99.90
21778;DHT22;11050;52.222;20.916;2022-12-22T03:32:15;3.70;99.90
21778;DHT22;11050;52.222;20.916;2022-12-22T03:34:41;3.70;99.90
21778;DHT22;11050;52.222;20.916;2022-12-22T03:37:07;3.70;99.90
21778;DHT22;11050;52.222;20.916;2022-12-22T03:39:33;3.70;99.90
21778;DHT22;11050;52.222;20.916;2022-12-22T03:41:59;3.70;99.90
21778;DHT22;11050;52.222;20.916;2022-12-22T03:44:43;3.70;99.90
21778;DHT22;11050;52.222;20.916;2022-12-22T03:47:29;3.70;99.90
21778;DHT22;11050;52.222;20.916;2022-12-22T03:49:55;3.70;99.90
21778;DHT22;11050;52.222;20.916;2022-12-22T03:52:21;3.70;99.90
21778;DHT22;11050;52.222;20.916;2022-12-22T03:54:47;3.70;99.90
21778;DHT22;11050;52.222;20.916;2022-12-22T03:57:12;3.80;99.90
21778;DHT22;11050;52.222;20.916;2022-12-22T03:59:38;3.80;99.90
21778;DHT22;11050;52.222;20.916;2022-12-22T04:02:05;3.80;99.90
21778;DHT22;11050;52.222;20.916;2022-12-22T04:04:31;3.80;99.90
21778;DHT22;11050;52.222;20.916;2022-12-22T04:06:57;3.80;99.90
21778;DHT22;11050;52.222;20.916;2022-12-22T04:09:23;3.80;99.90
21778;DHT22;11050;52.222;20.916;2022-12-22T04:11:51;3.80;99.90
21778;DHT22;11050;52.222;20.916;2022-12-22T04:14:36;3.80;99.90
21778;DHT22;11050;52.222;20.916;2022-12-22T04:17:03;3.80;99.90
21778;DHT22;11050;52.222;20.916;2022-12-22T04:19:30;3.90;99.90
21778;DHT22;11050;52.222;20.916;2022-12-22T04:21:56;3.80;99.90
21778;DHT22;11050;52.222;20.916;2022-12-22T04:24:22;3.90;99.90
21778;DHT22;11050;52.222;20.916;2022-12-22T04:26:48;3.90;99.90
21778;DHT22;11050;52.222;20.916;2022-12-22T04:29:14;3.90;99.90
21778;DHT22;11050;52.222;20.916;2022-12-22T04:31:40;3.90;99.90
21778;DHT22;11050;52.222;20.916;2022-12-22T04:34:06;4.00;99.90
21778;DHT22;11050;52.222;20.916;2022-12-22T04:36:31;3.90;99.90
21778;DHT22;11050;52.222;20.916;2022-12-22T04:38:57;4.00;99.90
21778;DHT22;11050;52.222;20.916;2022-12-22T04:41:23;4.00;99.90
21778;DHT22;11050;52.222;20.916;2022-12-22T04:43:48;4.00;99.90
21778;DHT22;11050;52.222;20.916;2022-12-22T04:46:14;4.00;99.90
21778;DHT22;11050;52.222;20.916;2022-12-22T04:48:40;4.00;99.90
21778;DHT22;11050;52.222;20.916;2022-12-22T04:51:05;4.00;99.90
21778;DHT22;11050;52.222;20.916;2022-12-22T04:53:31;4.00;99.90
21778;DHT22;11050;52.222;20.916;2022-12-22T04:56:03;4.00;99.90
21778;DHT22;11050;52.222;20.916;2022-12-22T04:58:31;4.00;99.90
21778;DHT22;11050;52.222;20.916;2022-12-22T05:01:10;4.00;99.90
21778;DHT22;11050;52.222;20.916;2022-12-22T05:03:38;4.00;99.90
21778;DHT22;11050;52.222;20.916;2022-12-22T05:06:04;4.00;99.90
21778;DHT22;11050;52.222;20.916;2022-12-22T05:08:30;4.00;99.90
21778;DHT22;11050;52.222;20.916;2022-12-22T05:10:56;4.00;99.90
21778;DHT22;11050;52.222;20.916;2022-12-22T05:13:21;4.00;99.90
21778;DHT22;11050;52.222;20.916;2022-12-22T05:15:47;4.00;99.90
21778;DHT22;11050;52.222;20.916;2022-12-22T05:18:13;4.00;99.90
21778;DHT22;11050;52.222;20.916;2022-12-22T05:20:38;4.00;99.90
21778;DHT22;11050;52.222;20.916;2022-12-22T05:23:04;4.10;99.90
21778;DHT22;11050;52.222;20.916;2022-12-22T05:25:29;4.10;99.90
21778;DHT22;11050;52.222;20.916;2022-12-22T05:27:55;4.10;99.90
21778;DHT22;11050;52.222;20.916;2022-12-22T05:30:21;4.10;99.90
21778;DHT22;11050;52.222;20.916;2022-12-22T05:32:47;4.00;99.90
21778;DHT22;11050;52.222;20.916;2022-12-22T05:35:13;4.10;99.90
21778;DHT22;11050;52.222;20.916;2022-12-22T05:37:40;4.00;99.90
21778;DHT22;11050;52.222;20.916;2022-12-22T05:40:06;4.00;99.90
21778;DHT22;11050;52.222;20.916;2022-12-22T05:42:32;4.00;99.90
21778;DHT22;11050;52.222;20.916;2022-12-22T05:45:13;4.00;99.90
21778;DHT22;11050;52.222;20.916;2022-12-22T05:47:46;4.00;99.90
21778;DHT22;11050;52.222;20.916;2022-12-22T05:50:16;4.00;99.90
21778;DHT22;11050;52.222;20.916;2022-12-22T05:52:43;4.00;99.90
21778;DHT22;11050;52.222;20.916;2022-12-22T05:55:10;4.10;99.90
21778;DHT22;11050;52.222;20.916;2022-12-22T05:57:36;4.00;99.90
21778;DHT22;11050;52.222;20.916;2022-12-22T06:00:08;4.10;99.90
21778;DHT22;11050;52.222;20.916;2022-12-22T06:02:36;4.10;99.90
21778;DHT22;11050;52.222;20.916;2022-12-22T06:05:01;4.10;99.90
21778;DHT22;11050;52.222;20.916;2022-12-22T06:07:27;4.10;99.90
21778;DHT22;11050;52.222;20.916;2022-12-22T06:09:53;4.10;99.90
21778;DHT22;11050;52.222;20.916;2022-12-22T06:12:18;4.10;99.90
21778;DHT22;11050;52.222;20.916;2022-12-22T06:14:44;4.10;99.90
21778;DHT22;11050;52.222;20.916;2022-12-22T06:17:10;4.10;99.90
21778;DHT22;11050;52.222;20.916;2022-12-22T06:19:35;4.10;99.90
21778;DHT22;11050;52.222;20.916;2022-12-22T06:22:01;4.00;99.90
21778;DHT22;11050;52.222;20.916;2022-12-22T06:24:27;4.10;99.90
21778;DHT22;11050;52.222;20.916;2022-12-22T06:26:52;4.10;99.90
21778;DHT22;11050;52.222;20.916;2022-12-22T06:29:18;4.10;99.90
21778;DHT22;11050;52.222;20.916;2022-12-22T06:31:44;4.00;99.90
21778;DHT22;11050;52.222;20.916;2022-12-22T06:34:10;4.00;99.90
21778;DHT22;11050;52.222;20.916;2022-12-22T06:36:36;4.00;99.90
21778;DHT22;11050;52.222;20.916;2022-12-22T06:39:04;4.10;99.90
21778;DHT22;11050;52.222;20.916;2022-12-22T06:41:30;4.10;99.90
21778;DHT22;11050;52.222;20.916;2022-12-22T06:44:14;4.10;99.90
21778;DHT22;11050;52.222;20.916;2022-12-22T06:46:40;4.10;99.90
21778;DHT22;11050;52.222;20.916;2022-12-22T06:49:06;4.10;99.90
21778;DHT22;11050;52.222;20.916;2022-12-22T06:51:31;4.10;99.90
21778;DHT22;11050;52.222;20.916;2022-12-22T06:53:57;4.10;99.90
21778;DHT22;11050;52.222;20.916;2022-12-22T06:56:23;4.10;99.90
21778;DHT22;11050;52.222;20.916;2022-12-22T06:58:48;4.10;99.90
21778;DHT22;11050;52.222;20.916;2022-12-22T07:01:14;4.10;99.90
21778;DHT22;11050;52.222;20.916;2022-12-22T07:03:39;4.20;99.90
21778;DHT22;11050;52.222;20.916;2022-12-22T07:06:05;4.10;99.90
21778;DHT22;11050;52.222;20.916;2022-12-22T07:08:31;4.20;99.90
21778;DHT22;11050;52.222;20.916;2022-12-22T07:10:57;4.20;99.90
21778;DHT22;11050;52.222;20.916;2022-12-22T07:13:28;4.20;99.90
21778;DHT22;11050;52.222;20.916;2022-12-22T07:16:00;4.20;99.90
21778;DHT22;11050;52.222;20.916;2022-12-22T07:18:28;4.20;99.90
21778;DHT22;11050;52.222;20.916;2022-12-22T07:20:56;4.20;99.90
21778;DHT22;11050;52.222;20.916;2022-12-22T07:23:22;4.20;99.90
21778;DHT22;11050;52.222;20.916;2022-12-22T07:25:47;4.20;99.90
21778;DHT22;11050;52.222;20.916;2022-12-22T07:28:13;4.20;99.90
21778;DHT22;11050;52.222;20.916;2022-12-22T07:30:39;4.20;99.90
21778;DHT22;11050;52.222;20.916;2022-12-22T07:33:04;4.20;99.90
21778;DHT22;11050;52.222;20.916;2022-12-22T07:35:30;4.20;99.90
21778;DHT22;11050;52.222;20.916;2022-12-22T07:37:56;4.20;99.90
21778;DHT22;11050;52.222;20.916;2022-12-22T07:40:21;4.20;99.90
21778;DHT22;11050;52.222;20.916;2022-12-22T07:42:47;4.20;99.90
21778;DHT22;11050;52.222;20.916;2022-12-22T07:45:15;4.30;99.90
21778;DHT22;11050;52.222;20.916;2022-12-22T07:47:43;4.30;99.90
21778;DHT22;11050;52.222;20.916;2022-12-22T07:50:12;4.30;99.90
21778;DHT22;11050;52.222;20.916;2022-12-22T07:53:02;4.30;99.90
21778;DHT22;11050;52.222;20.916;2022-12-22T07:55:35;4.30;99.90
21778;DHT22;11050;52.222;20.916;2022-12-22T07:58:02;4.30;99.90
21778;DHT22;11050;52.222;20.916;2022-12-22T08:00:28;4.30;99.90
21778;DHT22;11050;52.222;20.916;2022-12-22T08:02:55;4.30;99.90
21778;DHT22;11050;52.222;20.916;2022-12-22T08:05:23;4.40;99.90
21778;DHT22;11050;52.222;20.916;2022-12-22T08:07:51;4.40;99.90
21778;DHT22;11050;52.222;20.916;2022-12-22T08:10:18;4.40;99.90
21778;DHT22;11050;52.222;20.916;2022-12-22T08:12:45;4.50;99.90
21778;DHT22;11050;52.222;20.916;2022-12-22T08:15:11;4.50;99.90
21778;DHT22;11050;52.222;20.916;2022-12-22T08:17:37;4.50;99.90
21778;DHT22;11050;52.222;20.916;2022-12-22T08:20:04;4.60;99.90
21778;DHT22;11050;52.222;20.916;2022-12-22T08:22:35;4.60;99.90
21778;DHT22;11050;52.222;20.916;2022-12-22T08:25:00;4.60;99.90
21778;DHT22;11050;52.222;20.916;2022-12-22T08:27:30;4.70;99.90
21778;DHT22;11050;52.222;20.916;2022-12-22T08:30:05;4.70;99.90
21778;DHT22;11050;52.222;20.916;2022-12-22T08:32:34;4.70;99.90
21778;DHT22;11050;52.222;20.916;2022-12-22T08:35:02;4.80;99.90
21778;DHT22;11050;52.222;20.916;2022-12-22T08:37:30;4.80;99.90
21778;DHT22;11050;52.222;20.916;2022-12-22T08:40:02;4.70;99.90
21778;DHT22;11050;52.222;20.916;2022-12-22T08:42:32;4.80;99.90
21778;DHT22;11050;52.222;20.916;2022-12-22T08:44:58;4.80;99.90
21778;DHT22;11050;52.222;20.916;2022-12-22T08:47:23;4.70;99.90
21778;DHT22;11050;52.222;20.916;2022-12-22T08:49:49;4.70;99.90
21778;DHT22;11050;52.222;20.916;2022-12-22T08:52:15;4.70;99.90
21778;DHT22;11050;52.222;20.916;2022-12-22T08:54:41;4.70;99.90
21778;DHT22;11050;52.222;20.916;2022-12-22T08:57:07;4.70;99.90
21778;DHT22;11050;52.222;20.916;2022-12-22T08:59:33;4.60;99.90
21778;DHT22;11050;52.222;20.916;2022-12-22T09:01:59;4.60;99.90
21778;DHT22;11050;52.222;20.916;2022-12-22T09:04:30;4.60;99.90
21778;DHT22;11050;52.222;20.916;2022-12-22T09:06:57;4.60;99.90
21778;DHT22;11050;52.222;20.916;2022-12-22T09:09:24;4.50;99.90
21778;DHT22;11050;52.222;20.916;2022-12-22T09:11:50;4.50;99.90
21778;DHT22;11050;52.222;20.916;2022-12-22T09:14:16;4.50;99.90
21778;DHT22;11050;52.222;20.916;2022-12-22T09:16:42;4.60;99.90
21778;DHT22;11050;52.222;20.916;2022-12-22T09:19:08;4.60;99.90
21778;DHT22;11050;52.222;20.916;2022-12-22T09:21:34;4.60;99.90
21778;DHT22;11050;52.222;20.916;2022-12-22T09:24:00;4.70;99.90
21778;DHT22;11050;52.222;20.916;2022-12-22T09:26:27;4.70;99.90
21778;DHT22;11050;52.222;20.916;2022-12-22T09:28:53;4.80;99.90
21778;DHT22;11050;52.222;20.916;2022-12-22T09:31:21;4.90;99.90
21778;DHT22;11050;52.222;20.916;2022-12-22T09:33:48;4.90;99.90
21778;DHT22;11050;52.222;20.916;2022-12-22T09:36:21;5.00;99.90
21778;DHT22;11050;52.222;20.916;2022-12-22T09:38:48;5.00;99.90
21778;DHT22;11050;52.222;20.916;2022-12-22T09:43:41;5.00;99.90
21778;DHT22;11050;52.222;20.916;2022-12-22T09:46:17;5.10;99.90
21778;DHT22;11050;52.222;20.916;2022-12-22T09:48:46;5.20;99.90
21778;DHT22;11050;52.222;20.916;2022-12-22T09:51:13;5.20;99.90
21778;DHT22;11050;52.222;20.916;2022-12-22T09:53:41;5.30;99.90
21778;DHT22;11050;52.222;20.916;2022-12-22T09:56:12;5.20;99.90
21778;DHT22;11050;52.222;20.916;2022-12-22T09:58:40;5.30;99.90
21778;DHT22;11050;52.222;20.916;2022-12-22T10:09:44;5.40;99.90
21778;DHT22;11050;52.222;20.916;2022-12-22T10:12:20;5.40;99.90
21778;DHT22;11050;52.222;20.916;2022-12-22T10:14:51;5.30;99.90
21778;DHT22;11050;52.222;20.916;2022-12-22T10:19:50;5.30;99.90
21778;DHT22;11050;52.222;20.916;2022-12-22T10:22:30;5.30;99.90
21778;DHT22;11050;52.222;20.916;2022-12-22T10:25:05;5.30;99.90
21778;DHT22;11050;52.222;20.916;2022-12-22T10:27:33;5.30;99.90
21778;DHT22;11050;52.222;20.916;2022-12-22T10:30:28;5.30;99.90
21778;DHT22;11050;52.222;20.916;2022-12-22T10:33:17;5.30;99.90
21778;DHT22;11050;52.222;20.916;2022-12-22T10:35:49;5.30;99.90
21778;DHT22;11050;52.222;20.916;2022-12-22T10:38:27;5.30;99.90
21778;DHT22;11050;52.222;20.916;2022-12-22T10:40:59;5.40;99.90
21778;DHT22;11050;52.222;20.916;2022-12-22T10:43:34;5.30;99.90
21778;DHT22;11050;52.222;20.916;2022-12-22T10:46:03;5.30;99.90
21778;DHT22;11050;52.222;20.916;2022-12-22T10:48:35;5.30;99.90
21778;DHT22;11050;52.222;20.916;2022-12-22T10:51:06;5.30;99.90
21778;DHT22;11050;52.222;20.916;2022-12-22T10:53:47;5.30;99.90
21778;DHT22;11050;52.222;20.916;2022-12-22T10:56:28;5.40;99.90
21778;DHT22;11050;52.222;20.916;2022-12-22T10:58:56;5.40;99.90
21778;DHT22;11050;52.222;20.916;2022-12-22T11:01:38;5.40;99.90
21778;DHT22;11050;52.222;20.916;2022-12-22T11:06:53;5.40;99.90
21778;DHT22;11050;52.222;20.916;2022-12-22T11:09:20;5.40;99.90
21778;DHT22;11050;52.222;20.916;2022-12-22T11:14:54;5.40;99.90
21778;DHT22;11050;52.222;20.916;2022-12-22T11:29:22;5.40;99.90
21778;DHT22;11050;52.222;20.916;2022-12-22T11:35:12;5.50;99.90
21778;DHT22;11050;52.222;20.916;2022-12-22T11:37:59;5.60;99.90
21778;DHT22;11050;52.222;20.916;2022-12-22T11:43:39;6.30;99.90
21778;DHT22;11050;52.222;20.916;2022-12-22T11:46:26;6.80;99.90
21778;DHT22;11050;52.222;20.916;2022-12-22T11:49:04;7.30;99.90
21778;DHT22;11050;52.222;20.916;2022-12-22T11:54:55;7.90;99.90
21778;DHT22;11050;52.222;20.916;2022-12-22T12:00:17;8.10;99.90
21778;DHT22;11050;52.222;20.916;2022-12-22T12:09:06;7.90;99.90
21778;DHT22;11050;52.222;20.916;2022-12-22T12:12:12;7.80;99.90
21778;DHT22;11050;52.222;20.916;2022-12-22T12:20:50;7.90;99.90
21778;DHT22;11050;52.222;20.916;2022-12-22T12:23:39;7.90;99.90
21778;DHT22;11050;52.222;20.916;2022-12-22T12:26:41;7.80;99.90
21778;DHT22;11050;52.222;20.916;2022-12-22T12:29:19;7.60;99.90
21778;DHT22;11050;52.222;20.916;2022-12-22T12:34:51;7.20;99.90
21778;DHT22;11050;52.222;20.916;2022-12-22T12:37:36;7.00;99.90
21778;DHT22;11050;52.222;20.916;2022-12-22T12:40:37;6.90;99.90
21778;DHT22;11050;52.222;20.916;2022-12-22T12:43:25;6.80;99.90
21778;DHT22;11050;52.222;20.916;2022-12-22T12:45:51;6.80;99.90
21778;DHT22;11050;52.222;20.916;2022-12-22T12:50:52;6.70;99.90
21778;DHT22;11050;52.222;20.916;2022-12-22T12:53:24;6.70;99.90
21778;DHT22;11050;52.222;20.916;2022-12-22T13:01:10;6.10;99.90
21778;DHT22;11050;52.222;20.916;2022-12-22T13:03:56;5.90;99.90
21778;DHT22;11050;52.222;20.916;2022-12-22T13:09:20;5.60;99.90
21778;DHT22;11050;52.222;20.916;2022-12-22T13:11:48;5.50;99.90
21778;DHT22;11050;52.222;20.916;2022-12-22T13:17:46;5.30;99.90
21778;DHT22;11050;52.222;20.916;2022-12-22T13:20:16;5.10;99.90
21778;DHT22;11050;52.222;20.916;2022-12-22T13:22:51;5.10;99.90
21778;DHT22;11050;52.222;20.916;2022-12-22T13:25:20;5.00;99.90
21778;DHT22;11050;52.222;20.916;2022-12-22T13:27:47;4.90;99.90
21778;DHT22;11050;52.222;20.916;2022-12-22T13:30:20;4.90;99.90
21778;DHT22;11050;52.222;20.916;2022-12-22T13:32:48;4.80;99.90
21778;DHT22;11050;52.222;20.916;2022-12-22T13:35:35;4.80;99.90
21778;DHT22;11050;52.222;20.916;2022-12-22T13:38:04;4.70;99.90
21778;DHT22;11050;52.222;20.916;2022-12-22T13:40:41;4.70;99.90
21778;DHT22;11050;52.222;20.916;2022-12-22T13:43:13;4.70;99.90
21778;DHT22;11050;52.222;20.916;2022-12-22T13:45:52;4.70;99.90
21778;DHT22;11050;52.222;20.916;2022-12-22T13:48:49;4.60;99.90
21778;DHT22;11050;52.222;20.916;2022-12-22T13:51:24;4.70;99.90
21778;DHT22;11050;52.222;20.916;2022-12-22T13:53:56;4.60;99.90
21778;DHT22;11050;52.222;20.916;2022-12-22T13:56:38;4.60;99.90
21778;DHT22;11050;52.222;20.916;2022-12-22T13:59:33;4.60;99.90
21778;DHT22;11050;52.222;20.916;2022-12-22T14:04:38;4.70;99.90
21778;DHT22;11050;52.222;20.916;2022-12-22T14:07:16;4.60;99.90
21778;DHT22;11050;52.222;20.916;2022-12-22T14:09:45;4.70;99.90
21778;DHT22;11050;52.222;20.916;2022-12-22T14:12:18;4.70;99.90
21778;DHT22;11050;52.222;20.916;2022-12-22T14:14:47;4.70;99.90
21778;DHT22;11050;52.222;20.916;2022-12-22T14:19:49;4.70;99.90
21778;DHT22;11050;52.222;20.916;2022-12-22T14:22:22;4.80;99.90
21778;DHT22;11050;52.222;20.916;2022-12-22T14:24:54;4.80;99.90
21778;DHT22;11050;52.222;20.916;2022-12-22T14:30:18;4.80;99.90
21778;DHT22;11050;52.222;20.916;2022-12-22T14:32:48;4.80;99.90
21778;DHT22;11050;52.222;20.916;2022-12-22T14:37:48;4.80;99.90
21778;DHT22;11050;52.222;20.916;2022-12-22T14:40:34;4.80;99.90
21778;DHT22;11050;52.222;20.916;2022-12-22T14:43:04;4.80;99.90
21778;DHT22;11050;52.222;20.916;2022-12-22T14:45:39;4.80;99.90
21778;DHT22;11050;52.222;20.916;2022-12-22T14:48:07;4.80;99.90
21778;DHT22;11050;52.222;20.916;2022-12-22T14:50:34;4.80;99.90
21778;DHT22;11050;52.222;20.916;2022-12-22T14:53:02;4.90;99.90
21778;DHT22;11050;52.222;20.916;2022-12-22T14:55:41;4.90;99.90
21778;DHT22;11050;52.222;20.916;2022-12-22T14:58:20;4.90;99.90
21778;DHT22;11050;52.222;20.916;2022-12-22T15:04:07;4.80;99.90
21778;DHT22;11050;52.222;20.916;2022-12-22T15:06:46;4.80;99.90
21778;DHT22;11050;52.222;20.916;2022-12-22T15:11:51;4.70;99.90
21778;DHT22;11050;52.222;20.916;2022-12-22T15:14:23;4.60;99.90
21778;DHT22;11050;52.222;20.916;2022-12-22T15:16:58;4.60;99.90
21778;DHT22;11050;52.222;20.916;2022-12-22T15:19:28;4.60;99.90
21778;DHT22;11050;52.222;20.916;2022-12-22T15:21:55;4.50;99.90
21778;DHT22;11050;52.222;20.916;2022-12-22T15:24:21;4.50;99.90
21778;DHT22;11050;52.222;20.916;2022-12-22T15:26:48;4.40;99.90
21778;DHT22;11050;52.222;20.916;2022-12-22T15:29:13;4.40;99.90
21778;DHT22;11050;52.222;20.916;2022-12-22T15:31:40;4.40;99.90
21778;DHT22;11050;52.222;20.916;2022-12-22T15:34:28;4.40;99.90
21778;DHT22;11050;52.222;20.916;2022-12-22T15:36:56;4.40;99.90
21778;DHT22;11050;52.222;20.916;2022-12-22T15:39:22;4.40;99.90
21778;DHT22;11050;52.222;20.916;2022-12-22T15:41:49;4.40;99.90
21778;DHT22;11050;52.222;20.916;2022-12-22T15:44:15;4.40;99.90
21778;DHT22;11050;52.222;20.916;2022-12-22T15:46:43;4.40;99.90
21778;DHT22;11050;52.222;20.916;2022-12-22T15:49:18;4.40;99.90
21778;DHT22;11050;52.222;20.916;2022-12-22T15:51:55;4.40;99.90
21778;DHT22;11050;52.222;20.916;2022-12-22T15:54:25;4.40;99.90
21778;DHT22;11050;52.222;20.916;2022-12-22T15:56:53;4.40;99.90
21778;DHT22;11050;52.222;20.916;2022-12-22T15:59:22;4.50;99.90
21778;DHT22;11050;52.222;20.916;2022-12-22T16:01:50;4.50;99.90
21778;DHT22;11050;52.222;20.916;2022-12-22T16:04:16;4.50;99.90
21778;DHT22;11050;52.222;20.916;2022-12-22T16:06:43;4.50;99.90
21778;DHT22;11050;52.222;20.916;2022-12-22T16:09:19;4.40;99.90
21778;DHT22;11050;52.222;20.916;2022-12-22T16:11:48;4.40;99.90
21778;DHT22;11050;52.222;20.916;2022-12-22T16:14:15;4.40;99.90
21778;DHT22;11050;52.222;20.916;2022-12-22T16:16:45;4.40;99.90
21778;DHT22;11050;52.222;20.916;2022-12-22T16:19:14;4.40;99.90
21778;DHT22;11050;52.222;20.916;2022-12-22T16:21:42;4.40;99.90
21778;DHT22;11050;52.222;20.916;2022-12-22T16:24:22;4.40;99.90
21778;DHT22;11050;52.222;20.916;2022-12-22T16:26:52;4.40;99.90
21778;DHT22;11050;52.222;20.916;2022-12-22T16:29:21;4.40;99.90
21778;DHT22;11050;52.222;20.916;2022-12-22T16:31:47;4.40;99.90
21778;DHT22;11050;52.222;20.916;2022-12-22T16:34:14;4.40;99.90
21778;DHT22;11050;52.222;20.916;2022-12-22T16:36:39;4.50;99.90
21778;DHT22;11050;52.222;20.916;2022-12-22T16:39:05;4.50;99.90
21778;DHT22;11050;52.222;20.916;2022-12-22T16:41:31;4.50;99.90
21778;DHT22;11050;52.222;20.916;2022-12-22T16:43:59;4.50;99.90
21778;DHT22;11050;52.222;20.916;2022-12-22T16:46:25;4.50;99.90
21778;DHT22;11050;52.222;20.916;2022-12-22T16:48:54;4.50;99.90
21778;DHT22;11050;52.222;20.916;2022-12-22T16:51:29;4.60;99.90
21778;DHT22;11050;52.222;20.916;2022-12-22T16:54:01;4.60;99.90
21778;DHT22;11050;52.222;20.916;2022-12-22T16:56:29;4.60;99.90
21778;DHT22;11050;52.222;20.916;2022-12-22T16:58:56;4.60;99.90
21778;DHT22;11050;52.222;20.916;2022-12-22T17:01:37;4.60;99.90
21778;DHT22;11050;52.222;20.916;2022-12-22T17:04:18;4.60;99.90
21778;DHT22;11050;52.222;20.916;2022-12-22T17:06:48;4.60;99.90
21778;DHT22;11050;52.222;20.916;2022-12-22T17:09:26;4.60;99.90
21778;DHT22;11050;52.222;20.916;2022-12-22T17:11:58;4.60;99.90
21778;DHT22;11050;52.222;20.916;2022-12-22T17:14:31;4.60;99.90
21778;DHT22;11050;52.222;20.916;2022-12-22T17:17:01;4.60;99.90
21778;DHT22;11050;52.222;20.916;2022-12-22T17:19:28;4.60;99.90
21778;DHT22;11050;52.222;20.916;2022-12-22T17:21:54;4.60;99.90
21778;DHT22;11050;52.222;20.916;2022-12-22T17:24:23;4.60;99.90
21778;DHT22;11050;52.222;20.916;2022-12-22T17:26:51;4.70;99.90
21778;DHT22;11050;52.222;20.916;2022-12-22T17:29:20;4.60;99.90
21778;DHT22;11050;52.222;20.916;2022-12-22T17:31:48;4.70;99.90
21778;DHT22;11050;52.222;20.916;2022-12-22T17:34:16;4.60;99.90
21778;DHT22;11050;52.222;20.916;2022-12-22T17:36:45;4.70;99.90
21778;DHT22;11050;52.222;20.916;2022-12-22T17:39:15;4.70;99.90
21778;DHT22;11050;52.222;20.916;2022-12-22T17:41:43;4.80;99.90
21778;DHT22;11050;52.222;20.916;2022-12-22T17:44:15;4.80;99.90
21778;DHT22;11050;52.222;20.916;2022-12-22T17:46:43;4.80;99.90
21778;DHT22;11050;52.222;20.916;2022-12-22T17:49:09;4.80;99.90